createdAt,value
2022-10-05T00:00:49.668Z,14.9
2022-10-05T00:01:49.755Z,14.9
2022-10-05T00:02:49.679Z,14.9
2022-10-05T00:03:49.711Z,14.9
2022-10-05T00:04:49.720Z,14.9
2022-10-05T00:05:49.654Z,14.9
2022-10-05T00:06:49.657Z,14.9
2022-10-05T00:07:49.661Z,14.9
2022-10-05T00:08:49.676Z,14.9
2022-10-05T00:09:49.672Z,14.9
2022-10-05T00:10:49.676Z,14.9
2022-10-05T00:11:49.676Z,14.9
2022-10-05T00:12:49.643Z,14.9
2022-10-05T00:13:49.656Z,14.9
2022-10-05T00:14:49.648Z,14.9
2022-10-05T00:15:49.704Z,14.9
2022-10-05T00:16:50.140Z,14.9
2022-10-05T00:17:49.662Z,14.9
2022-10-05T00:18:49.674Z,14.9
2022-10-05T00:19:49.648Z,14.9
2022-10-05T00:20:49.667Z,14.9
2022-10-05T00:21:49.662Z,14.9
2022-10-05T00:22:49.650Z,14.9
2022-10-05T00:23:49.669Z,14.9
2022-10-05T00:24:49.664Z,14.9
2022-10-05T00:25:49.660Z,14.9
2022-10-05T00:26:54.034Z,14.9
2022-10-05T00:27:49.682Z,14.9
2022-10-05T00:28:49.651Z,14.9
2022-10-05T00:29:49.667Z,14.9
2022-10-05T00:30:49.672Z,14.9
2022-10-05T00:31:49.718Z,14.9
2022-10-05T00:32:49.675Z,14.9
2022-10-05T00:33:49.637Z,14.9
2022-10-05T00:34:49.642Z,14.9
2022-10-05T00:35:49.645Z,14.9
2022-10-05T00:36:49.953Z,14.9
2022-10-05T00:37:49.658Z,14.9
2022-10-05T00:38:49.641Z,14.9
2022-10-05T00:39:49.672Z,14.9
2022-10-05T00:40:49.667Z,14.9
2022-10-05T00:41:49.671Z,14.9
2022-10-05T00:42:49.669Z,14.9
2022-10-05T00:43:49.652Z,14.9
2022-10-05T00:44:49.647Z,14.9
2022-10-05T00:45:49.722Z,14.9
2022-10-05T00:46:49.657Z,14.9
2022-10-05T00:47:49.690Z,14.9
2022-10-05T00:48:49.642Z,14.9
2022-10-05T00:49:49.661Z,14.9
2022-10-05T00:50:49.662Z,14.9
2022-10-05T00:51:49.652Z,14.9
2022-10-05T00:52:49.708Z,14.9
2022-10-05T00:53:49.663Z,14.9
2022-10-05T00:54:49.632Z,14.9
2022-10-05T00:55:49.657Z,14.9
2022-10-05T00:56:49.665Z,14.9
2022-10-05T00:57:49.653Z,14.9
2022-10-05T00:58:49.660Z,14.9
2022-10-05T00:59:49.646Z,14.9
2022-10-05T01:00:49.710Z,14.9
2022-10-05T01:01:49.686Z,14.9
2022-10-05T01:02:49.697Z,14.9
2022-10-05T01:03:49.686Z,14.9
2022-10-05T01:04:49.642Z,14.9
2022-10-05T01:05:49.661Z,14.9
2022-10-05T01:06:49.662Z,14.9
2022-10-05T01:07:49.668Z,14.9
2022-10-05T01:08:49.677Z,14.9
2022-10-05T01:09:49.671Z,14.9
2022-10-05T01:10:49.643Z,14.9
2022-10-05T01:11:49.661Z,14.9
2022-10-05T01:12:49.658Z,14.9
2022-10-05T01:13:49.688Z,14.9
2022-10-05T01:14:49.666Z,14.9
2022-10-05T01:15:49.658Z,14.9
2022-10-05T01:16:50.375Z,14.9
2022-10-05T01:17:49.657Z,14.9
2022-10-05T01:18:49.644Z,14.9
2022-10-05T01:19:49.660Z,14.9
2022-10-05T01:20:49.642Z,14.9
2022-10-05T01:21:49.638Z,14.9
2022-10-05T01:22:49.667Z,14.9
2022-10-05T01:23:49.650Z,14.9
2022-10-05T01:24:49.682Z,14.9
2022-10-05T01:25:49.637Z,14.9
2022-10-05T01:26:49.846Z,14.9
2022-10-05T01:27:49.646Z,14.9
2022-10-05T01:28:49.657Z,14.9
2022-10-05T01:29:49.663Z,14.9
2022-10-05T01:30:49.671Z,14.9
2022-10-05T01:31:49.721Z,14.9
2022-10-05T01:32:49.648Z,14.9
2022-10-05T01:33:49.656Z,14.9
2022-10-05T01:34:49.658Z,14.9
2022-10-05T01:35:49.653Z,14.9
2022-10-05T01:36:49.884Z,14.9
2022-10-05T01:37:49.641Z,14.9
2022-10-05T01:38:49.640Z,14.9
2022-10-05T01:39:49.653Z,14.9
2022-10-05T01:40:49.659Z,14.9
2022-10-05T01:41:49.644Z,14.9
2022-10-05T01:42:49.655Z,14.9
2022-10-05T01:43:49.634Z,14.9
2022-10-05T01:44:49.666Z,14.9
2022-10-05T01:45:49.744Z,14.9
2022-10-05T01:46:49.740Z,14.9
2022-10-05T01:47:49.639Z,14.9
2022-10-05T01:48:49.665Z,14.9
2022-10-05T01:49:49.642Z,14.9
2022-10-05T01:50:49.660Z,14.9
2022-10-05T01:51:49.664Z,14.9
2022-10-05T01:52:49.661Z,14.9
2022-10-05T01:53:49.655Z,14.9
2022-10-05T01:54:49.651Z,14.9
2022-10-05T01:55:49.679Z,14.9
2022-10-05T01:56:49.678Z,14.9
2022-10-05T01:57:49.643Z,14.9
2022-10-05T01:58:49.661Z,14.9
2022-10-05T01:59:49.649Z,14.9
2022-10-05T02:00:49.723Z,14.9
2022-10-05T02:01:49.717Z,14.9
2022-10-05T02:02:49.640Z,14.9
2022-10-05T02:03:49.643Z,14.9
2022-10-05T02:05:02.130Z,14.9
2022-10-05T02:05:49.665Z,14.9
2022-10-05T02:06:49.787Z,14.9
2022-10-05T02:07:49.655Z,14.9
2022-10-05T02:08:49.637Z,14.9
2022-10-05T02:09:49.655Z,14.9
2022-10-05T02:10:49.641Z,14.9
2022-10-05T02:11:49.650Z,14.9
2022-10-05T02:12:49.645Z,14.9
2022-10-05T02:13:49.669Z,14.9
2022-10-05T02:14:49.644Z,14.9
2022-10-05T02:15:49.725Z,14.9
2022-10-05T02:16:49.947Z,14.9
2022-10-05T02:17:49.645Z,14.9
2022-10-05T02:18:49.657Z,14.9
2022-10-05T02:19:49.653Z,14.9
2022-10-05T02:20:49.630Z,14.9
2022-10-05T02:21:49.672Z,14.9
2022-10-05T02:22:49.640Z,14.9
2022-10-05T02:23:49.642Z,14.9
2022-10-05T02:24:49.628Z,14.9
2022-10-05T02:25:49.652Z,14.9
2022-10-05T02:26:49.733Z,14.9
2022-10-05T02:27:49.661Z,14.9
2022-10-05T02:28:49.635Z,14.9
2022-10-05T02:29:49.628Z,14.9
2022-10-05T02:30:49.629Z,14.9
2022-10-05T02:31:49.682Z,14.9
2022-10-05T02:32:49.700Z,14.9
2022-10-05T02:33:49.663Z,14.9
2022-10-05T02:34:49.629Z,14.9
2022-10-05T02:35:49.633Z,14.9
2022-10-05T02:36:49.806Z,14.9
2022-10-05T02:37:49.674Z,14.9
2022-10-05T02:38:49.641Z,14.9
2022-10-05T02:39:49.624Z,14.9
2022-10-05T02:40:49.649Z,14.9
2022-10-05T02:41:49.636Z,14.9
2022-10-05T02:42:49.668Z,14.9
2022-10-05T02:43:49.639Z,14.9
2022-10-05T02:44:49.647Z,14.9
2022-10-05T02:45:49.642Z,14.9
2022-10-05T02:46:53.209Z,14.9
2022-10-05T02:47:49.657Z,14.9
2022-10-05T02:48:49.652Z,14.9
2022-10-05T02:49:49.640Z,14.9
2022-10-05T02:50:49.621Z,14.9
2022-10-05T02:51:49.643Z,14.9
2022-10-05T02:52:49.654Z,14.9
2022-10-05T02:53:49.646Z,14.9
2022-10-05T02:54:49.645Z,14.9
2022-10-05T02:55:49.651Z,14.9
2022-10-05T02:56:49.857Z,14.9
2022-10-05T02:57:49.645Z,14.9
2022-10-05T02:58:49.635Z,14.9
2022-10-05T02:59:49.644Z,14.9
2022-10-05T03:00:49.722Z,14.9
2022-10-05T03:01:49.678Z,14.9
2022-10-05T03:02:49.650Z,14.9
2022-10-05T03:03:49.659Z,14.9
2022-10-05T03:04:49.647Z,14.9
2022-10-05T03:05:49.617Z,14.9
2022-10-05T03:06:49.641Z,14.9
2022-10-05T03:07:49.637Z,14.9
2022-10-05T03:08:49.634Z,14.9
2022-10-05T03:09:49.655Z,14.9
2022-10-05T03:10:49.634Z,14.9
2022-10-05T03:11:49.638Z,14.9
2022-10-05T03:12:49.662Z,14.9
2022-10-05T03:13:49.631Z,14.9
2022-10-05T03:14:49.650Z,14.9
2022-10-05T03:15:49.691Z,14.9
2022-10-05T03:16:49.651Z,14.9
2022-10-05T03:17:49.654Z,14.9
2022-10-05T03:18:49.647Z,14.9
2022-10-05T03:19:49.644Z,14.9
2022-10-05T03:20:49.626Z,14.9
2022-10-05T03:21:49.637Z,14.9
2022-10-05T03:22:49.643Z,14.9
2022-10-05T03:23:49.647Z,14.9
2022-10-05T03:24:49.662Z,14.9
2022-10-05T03:25:49.637Z,14.9
2022-10-05T03:26:49.670Z,14.9
2022-10-05T03:27:49.633Z,14.9
2022-10-05T03:28:49.709Z,14.9
2022-10-05T03:29:49.646Z,14.9
2022-10-05T03:30:49.702Z,14.9
2022-10-05T03:31:49.616Z,14.9
2022-10-05T03:32:49.634Z,14.9
2022-10-05T03:33:49.650Z,14.9
2022-10-05T03:34:49.633Z,14.9
2022-10-05T03:35:49.622Z,14.9
2022-10-05T03:36:49.856Z,14.9
2022-10-05T03:37:49.640Z,14.9
2022-10-05T03:38:49.629Z,14.9
2022-10-05T03:39:49.636Z,14.9
2022-10-05T03:40:49.632Z,14.9
2022-10-05T03:41:49.637Z,14.9
2022-10-05T03:42:49.642Z,14.9
2022-10-05T03:43:49.623Z,14.9
2022-10-05T03:44:49.619Z,14.9
2022-10-05T03:45:49.690Z,14.9
2022-10-05T03:46:50.058Z,14.9
2022-10-05T03:47:49.615Z,14.9
2022-10-05T03:48:49.633Z,14.9
2022-10-05T03:49:49.607Z,14.9
2022-10-05T03:50:49.644Z,14.9
2022-10-05T03:51:49.641Z,14.9
2022-10-05T03:52:49.642Z,14.9
2022-10-05T03:53:49.632Z,14.9
2022-10-05T03:54:49.625Z,14.9
2022-10-05T03:55:49.665Z,14.9
2022-10-05T03:56:49.901Z,14.9
2022-10-05T03:57:49.642Z,14.9
2022-10-05T03:58:49.643Z,14.9
2022-10-05T03:59:49.617Z,14.9
2022-10-05T04:00:49.647Z,14.9
2022-10-05T04:01:49.696Z,14.9
2022-10-05T04:02:49.739Z,14.9
2022-10-05T04:03:49.619Z,14.9
2022-10-05T04:04:49.650Z,14.9
2022-10-05T04:05:49.633Z,14.9
2022-10-05T04:06:49.958Z,14.9
2022-10-05T04:07:49.643Z,14.9
2022-10-05T04:08:49.618Z,14.9
2022-10-05T04:09:49.615Z,14.9
2022-10-05T04:10:49.628Z,14.9
2022-10-05T04:11:49.624Z,14.9
2022-10-05T04:12:49.631Z,14.9
2022-10-05T04:13:49.639Z,14.9
2022-10-05T04:14:49.629Z,14.9
2022-10-05T04:15:49.721Z,14.9
2022-10-05T04:16:49.880Z,14.9
2022-10-05T04:17:49.622Z,14.9
2022-10-05T04:18:49.639Z,14.9
2022-10-05T04:19:49.640Z,14.9
2022-10-05T04:20:49.630Z,14.9
2022-10-05T04:21:49.668Z,14.9
2022-10-05T04:22:49.621Z,14.9
2022-10-05T04:23:49.623Z,14.9
2022-10-05T04:24:49.622Z,14.9
2022-10-05T04:25:49.639Z,14.9
2022-10-05T04:26:49.906Z,14.9
2022-10-05T04:27:49.635Z,14.9
2022-10-05T04:28:52.433Z,14.9
2022-10-05T04:29:49.620Z,14.9
2022-10-05T04:30:49.607Z,14.9
2022-10-05T04:31:49.733Z,14.9
2022-10-05T04:32:49.642Z,14.9
2022-10-05T04:33:49.630Z,14.9
2022-10-05T04:34:49.635Z,14.9
2022-10-05T04:35:49.627Z,14.9
2022-10-05T04:36:49.662Z,14.9
2022-10-05T04:37:49.622Z,14.9
2022-10-05T04:38:49.644Z,14.9
2022-10-05T04:39:49.615Z,14.9
2022-10-05T04:40:49.623Z,14.9
2022-10-05T04:41:49.640Z,14.9
2022-10-05T04:42:49.639Z,14.9
2022-10-05T04:43:49.642Z,14.9
2022-10-05T04:44:49.612Z,14.9
2022-10-05T04:45:49.623Z,14.9
2022-10-05T04:46:50.103Z,14.9
2022-10-05T04:47:49.665Z,14.9
2022-10-05T04:48:49.634Z,14.9
2022-10-05T04:49:49.632Z,14.9
2022-10-05T04:50:49.644Z,14.9
2022-10-05T04:51:51.147Z,14.9
2022-10-05T04:52:49.640Z,14.9
2022-10-05T04:53:49.630Z,14.9
2022-10-05T04:54:49.634Z,14.9
2022-10-05T04:55:49.618Z,14.9
2022-10-05T04:56:49.950Z,14.9
2022-10-05T04:57:49.617Z,14.9
2022-10-05T04:58:49.637Z,14.9
2022-10-05T04:59:49.609Z,14.9
2022-10-05T05:00:49.668Z,14.9
2022-10-05T05:01:49.623Z,14.9
2022-10-05T05:02:49.619Z,14.9
2022-10-05T05:03:49.703Z,14.9
2022-10-05T05:04:51.848Z,14.9
2022-10-05T05:06:15.489Z,14.9
2022-10-05T05:06:49.743Z,14.9
2022-10-05T05:07:49.611Z,14.9
2022-10-05T05:08:49.631Z,14.9
2022-10-05T05:09:49.636Z,14.9
2022-10-05T05:10:49.612Z,14.9
2022-10-05T05:11:49.644Z,14.9
2022-10-05T05:12:49.592Z,14.9
2022-10-05T05:13:49.601Z,14.9
2022-10-05T05:14:49.623Z,14.9
2022-10-05T05:15:49.693Z,14.9
2022-10-05T05:16:49.828Z,14.9
2022-10-05T05:17:49.634Z,14.9
2022-10-05T05:18:49.618Z,14.9
2022-10-05T05:19:49.621Z,14.9
2022-10-05T05:20:49.627Z,14.9
2022-10-05T05:21:49.619Z,14.9
2022-10-05T05:22:49.620Z,14.9
2022-10-05T05:23:49.620Z,14.9
2022-10-05T05:24:49.621Z,14.9
2022-10-05T05:25:49.619Z,14.9
2022-10-05T05:26:49.981Z,14.9
2022-10-05T05:27:49.620Z,14.9
2022-10-05T05:28:49.620Z,14.9
2022-10-05T05:29:49.630Z,14.9
2022-10-05T05:30:49.635Z,14.9
2022-10-05T05:31:49.619Z,14.9
2022-10-05T05:32:49.632Z,14.9
2022-10-05T05:33:49.597Z,14.9
2022-10-05T05:34:49.626Z,14.9
2022-10-05T05:35:49.610Z,14.9
2022-10-05T05:36:49.860Z,14.9
2022-10-05T05:37:49.626Z,14.9
2022-10-05T05:38:49.623Z,14.9
2022-10-05T05:39:49.603Z,14.9
2022-10-05T05:40:49.626Z,14.9
2022-10-05T05:41:49.677Z,14.9
2022-10-05T05:42:49.608Z,14.9
2022-10-05T05:43:49.615Z,14.9
2022-10-05T05:44:49.620Z,14.9
2022-10-05T05:45:49.605Z,14.9
2022-10-05T05:47:03.445Z,14.9
2022-10-05T05:47:49.712Z,14.9
2022-10-05T05:48:49.598Z,14.9
2022-10-05T05:49:49.614Z,14.9
2022-10-05T05:50:49.620Z,14.9
2022-10-05T05:51:49.598Z,14.9
2022-10-05T05:52:49.631Z,14.9
2022-10-05T05:53:49.632Z,14.9
2022-10-05T05:54:49.611Z,14.9
2022-10-05T05:55:49.641Z,14.9
2022-10-05T05:56:49.976Z,14.9
2022-10-05T05:57:49.614Z,14.9
2022-10-05T05:58:49.611Z,14.9
2022-10-05T05:59:49.613Z,14.9
2022-10-05T06:00:49.636Z,14.9
2022-10-05T06:01:49.699Z,14.9
2022-10-05T06:02:49.734Z,14.9
2022-10-05T06:03:49.605Z,14.9
2022-10-05T06:04:49.619Z,14.9
2022-10-05T06:05:49.613Z,14.9
2022-10-05T06:06:50.014Z,14.9
2022-10-05T06:07:49.592Z,14.9
2022-10-05T06:08:49.639Z,14.9
2022-10-05T06:09:49.624Z,14.9
2022-10-05T06:10:49.602Z,14.9
2022-10-05T06:11:49.617Z,14.9
2022-10-05T06:12:49.607Z,14.9
2022-10-05T06:13:49.616Z,14.9
2022-10-05T06:14:49.600Z,14.9
2022-10-05T06:15:49.621Z,14.9
2022-10-05T06:16:50.184Z,14.9
2022-10-05T06:17:49.605Z,14.9
2022-10-05T06:18:49.605Z,14.9
2022-10-05T06:19:49.618Z,14.9
2022-10-05T06:20:49.607Z,14.9
2022-10-05T06:21:49.619Z,14.9
2022-10-05T06:22:49.612Z,14.9
2022-10-05T06:23:49.572Z,14.9
2022-10-05T06:24:49.593Z,14.9
2022-10-05T06:25:49.605Z,14.9
2022-10-05T06:26:49.883Z,14.9
2022-10-05T06:27:49.609Z,14.9
2022-10-05T06:28:49.599Z,14.9
2022-10-05T06:29:49.613Z,14.9
2022-10-05T06:30:49.600Z,14.9
2022-10-05T06:31:49.701Z,14.9
2022-10-05T06:32:49.595Z,14.9
2022-10-05T06:33:49.602Z,14.9
2022-10-05T06:34:49.595Z,14.9
2022-10-05T06:35:49.594Z,14.9
2022-10-05T06:36:49.890Z,14.9
2022-10-05T06:37:49.629Z,14.9
2022-10-05T06:38:49.620Z,14.9
2022-10-05T06:39:49.596Z,14.9
2022-10-05T06:40:49.624Z,14.9
2022-10-05T06:41:49.609Z,14.9
2022-10-05T06:42:49.637Z,14.9
2022-10-05T06:43:49.611Z,14.9
2022-10-05T06:44:49.599Z,14.9
2022-10-05T06:45:49.789Z,14.9
2022-10-05T06:46:49.849Z,14.9
2022-10-05T06:47:49.646Z,14.9
2022-10-05T06:48:49.613Z,14.9
2022-10-05T06:49:49.600Z,14.9
2022-10-05T06:50:49.596Z,14.9
2022-10-05T06:51:49.583Z,14.9
2022-10-05T06:52:49.609Z,14.9
2022-10-05T06:53:49.620Z,14.9
2022-10-05T06:54:49.608Z,14.9
2022-10-05T06:55:49.605Z,14.9
2022-10-05T06:56:50.076Z,14.9
2022-10-05T06:57:49.608Z,14.9
2022-10-05T06:58:49.624Z,14.9
2022-10-05T06:59:49.611Z,14.9
2022-10-05T07:00:49.621Z,14.9
2022-10-05T07:01:49.989Z,14.9
2022-10-05T07:02:49.605Z,14.9
2022-10-05T07:03:49.645Z,14.9
2022-10-05T07:04:49.591Z,14.9
2022-10-05T07:05:49.621Z,14.9
2022-10-05T07:06:49.605Z,14.9
2022-10-05T07:07:49.600Z,14.9
2022-10-05T07:08:49.623Z,14.9
2022-10-05T07:09:49.609Z,14.9
2022-10-05T07:10:49.606Z,14.9
2022-10-05T07:11:55.698Z,14.9
2022-10-05T07:12:49.602Z,14.9
2022-10-05T07:13:49.607Z,14.9
2022-10-05T07:14:49.605Z,14.9
2022-10-05T07:15:49.590Z,14.9
2022-10-05T07:16:49.651Z,14.9
2022-10-05T07:17:49.591Z,14.9
2022-10-05T07:18:49.584Z,14.9
2022-10-05T07:19:49.613Z,14.9
2022-10-05T07:20:49.604Z,14.9
2022-10-05T07:21:49.836Z,14.9
2022-10-05T07:22:49.596Z,14.9
2022-10-05T07:23:49.599Z,14.9
2022-10-05T07:24:49.620Z,14.9
2022-10-05T07:25:49.613Z,14.9
2022-10-05T07:26:50.196Z,14.9
2022-10-05T07:27:51.750Z,14.9
2022-10-05T07:28:49.588Z,14.9
2022-10-05T07:29:49.598Z,14.9
2022-10-05T07:30:49.638Z,14.9
2022-10-05T07:31:49.587Z,14.9
2022-10-05T07:32:49.592Z,14.9
2022-10-05T07:33:49.598Z,14.9
2022-10-05T07:34:49.598Z,14.9
2022-10-05T07:35:49.613Z,14.9
2022-10-05T07:36:54.457Z,14.9
2022-10-05T07:37:49.602Z,14.9
2022-10-05T07:38:49.602Z,14.9
2022-10-05T07:40:00.114Z,14.9
2022-10-05T07:40:49.590Z,14.9
2022-10-05T07:41:49.570Z,14.9
2022-10-05T07:42:52.208Z,14.9
2022-10-05T07:44:01.973Z,14.9
2022-10-05T07:44:49.591Z,14.9
2022-10-05T07:45:49.624Z,14.9
2022-10-05T07:46:50.274Z,14.9
2022-10-05T07:47:49.613Z,14.9
2022-10-05T07:48:49.596Z,14.9
2022-10-05T07:49:49.607Z,14.9
2022-10-05T07:50:49.588Z,14.9
2022-10-05T07:51:49.590Z,14.9
2022-10-05T07:52:49.613Z,14.9
2022-10-05T07:53:49.608Z,14.9
2022-10-05T07:54:49.577Z,14.9
2022-10-05T07:55:49.596Z,14.9
2022-10-05T07:56:50.093Z,14.9
2022-10-05T07:57:49.605Z,14.9
2022-10-05T07:58:49.603Z,14.9
2022-10-05T07:59:49.584Z,14.9
2022-10-05T08:00:49.650Z,14.9
2022-10-05T08:01:49.632Z,14.9
2022-10-05T08:02:49.641Z,14.9
2022-10-05T08:03:49.583Z,14.9
2022-10-05T08:04:49.591Z,14.9
2022-10-05T08:05:49.641Z,14.9
2022-10-05T08:06:50.133Z,14.9
2022-10-05T08:07:49.599Z,14.9
2022-10-05T08:08:49.584Z,14.9
2022-10-05T08:09:49.616Z,14.9
2022-10-05T08:10:49.586Z,14.9
2022-10-05T08:11:49.734Z,14.9
2022-10-05T08:12:49.581Z,14.9
2022-10-05T08:13:49.596Z,14.9
2022-10-05T08:14:49.583Z,14.9
2022-10-05T08:15:49.711Z,14.9
2022-10-05T08:16:49.616Z,14.9
2022-10-05T08:17:49.600Z,14.9
2022-10-05T08:18:49.597Z,14.9
2022-10-05T08:19:49.599Z,14.9
2022-10-05T08:20:49.582Z,14.9
2022-10-05T08:21:49.975Z,14.9
2022-10-05T08:22:49.589Z,14.9
2022-10-05T08:23:49.596Z,14.9
2022-10-05T08:24:49.595Z,14.9
2022-10-05T08:25:49.572Z,14.9
2022-10-05T08:26:49.754Z,14.9
2022-10-05T08:27:49.600Z,14.9
2022-10-05T08:28:49.597Z,14.9
2022-10-05T08:29:49.577Z,14.9
2022-10-05T08:30:49.613Z,14.9
2022-10-05T08:31:50.177Z,14.9
2022-10-05T08:32:49.620Z,14.9
2022-10-05T08:33:49.597Z,14.9
2022-10-05T08:34:49.640Z,14.9
2022-10-05T08:35:49.581Z,14.9
2022-10-05T08:36:53.705Z,14.9
2022-10-05T08:37:49.606Z,14.9
2022-10-05T08:38:49.611Z,14.9
2022-10-05T08:39:49.568Z,14.9
2022-10-05T08:40:49.596Z,14.9
2022-10-05T08:41:49.876Z,14.9
2022-10-05T08:42:49.593Z,14.9
2022-10-05T08:43:49.583Z,14.9
2022-10-05T08:44:49.604Z,14.9
2022-10-05T08:45:49.656Z,14.9
2022-10-05T08:46:49.582Z,14.9
2022-10-05T08:47:49.625Z,14.9
2022-10-05T08:48:49.599Z,14.9
2022-10-05T08:49:49.589Z,14.9
2022-10-05T08:50:49.594Z,14.9
2022-10-05T08:51:49.971Z,14.9
2022-10-05T08:52:49.611Z,14.9
2022-10-05T08:53:49.586Z,14.9
2022-10-05T08:54:49.602Z,14.9
2022-10-05T08:55:49.577Z,14.9
2022-10-05T08:56:49.578Z,14.9
2022-10-05T08:57:49.592Z,14.9
2022-10-05T08:58:49.592Z,14.9
2022-10-05T08:59:49.585Z,14.9
2022-10-05T09:00:49.586Z,14.9
2022-10-05T09:01:50.184Z,14.9
2022-10-05T09:02:49.734Z,14.9
2022-10-05T09:03:49.596Z,14.9
2022-10-05T09:04:49.589Z,14.9
2022-10-05T09:05:49.596Z,14.9
2022-10-05T09:06:49.576Z,14.9
2022-10-05T09:07:49.604Z,14.9
2022-10-05T09:08:49.617Z,14.9
2022-10-05T09:09:49.575Z,14.9
2022-10-05T09:10:49.592Z,14.9
2022-10-05T09:11:49.783Z,14.9
2022-10-05T09:12:49.595Z,14.9
2022-10-05T09:13:49.586Z,14.9
2022-10-05T09:15:07.205Z,14.9
2022-10-05T09:15:49.660Z,14.9
2022-10-05T09:16:49.577Z,14.9
2022-10-05T09:17:49.580Z,14.9
2022-10-05T09:18:49.586Z,14.9
2022-10-05T09:19:49.616Z,14.9
2022-10-05T09:20:49.565Z,14.9
2022-10-05T09:21:49.990Z,14.9
2022-10-05T09:22:49.595Z,14.9
2022-10-05T09:23:49.575Z,14.9
2022-10-05T09:24:49.581Z,14.9
2022-10-05T09:25:49.584Z,14.9
2022-10-05T09:26:49.596Z,14.9
2022-10-05T09:27:49.577Z,14.9
2022-10-05T09:28:49.594Z,14.9
2022-10-05T09:29:49.615Z,14.9
2022-10-05T09:30:49.615Z,14.9
2022-10-05T09:31:49.826Z,14.9
2022-10-05T09:32:49.588Z,14.9
2022-10-05T09:33:49.591Z,14.9
2022-10-05T09:34:49.594Z,14.9
2022-10-05T09:35:49.570Z,14.9
2022-10-05T09:36:49.589Z,14.9
2022-10-05T09:37:49.564Z,14.9
2022-10-05T09:38:49.593Z,14.9
2022-10-05T09:39:49.613Z,14.9
2022-10-05T09:40:49.581Z,14.9
2022-10-05T09:41:49.853Z,14.9
2022-10-05T09:42:49.587Z,14.9
2022-10-05T09:43:49.606Z,14.9
2022-10-05T09:44:49.571Z,14.9
2022-10-05T09:45:49.591Z,14.9
2022-10-05T09:46:49.577Z,14.9
2022-10-05T09:47:49.574Z,14.9
2022-10-05T09:48:49.577Z,14.9
2022-10-05T09:49:49.590Z,14.9
2022-10-05T09:50:49.606Z,14.9
2022-10-05T09:51:49.879Z,14.9
2022-10-05T09:52:49.575Z,14.9
2022-10-05T09:53:49.586Z,14.9
2022-10-05T09:54:49.560Z,14.9
2022-10-05T09:55:49.593Z,14.9
2022-10-05T09:56:49.974Z,14.9
2022-10-05T09:57:52.402Z,14.9
2022-10-05T09:58:49.568Z,14.9
2022-10-05T09:59:49.589Z,14.9
2022-10-05T10:00:55.670Z,14.9
2022-10-05T10:01:49.883Z,14.9
2022-10-05T10:02:49.761Z,14.9
2022-10-05T10:03:49.565Z,14.9
2022-10-05T10:04:49.555Z,14.9
2022-10-05T10:05:49.612Z,14.9
2022-10-05T10:06:49.569Z,14.9
2022-10-05T10:07:49.572Z,14.9
2022-10-05T10:08:49.572Z,14.9
2022-10-05T10:09:49.564Z,14.9
2022-10-05T10:10:49.571Z,14.9
2022-10-05T10:11:50.012Z,14.9
2022-10-05T10:12:49.581Z,14.9
2022-10-05T10:13:49.570Z,14.9
2022-10-05T10:14:49.574Z,14.9
2022-10-05T10:15:49.604Z,14.9
2022-10-05T10:16:49.589Z,14.9
2022-10-05T10:17:49.581Z,14.9
2022-10-05T10:18:49.592Z,14.9
2022-10-05T10:19:49.558Z,14.9
2022-10-05T10:20:49.560Z,14.9
2022-10-05T10:21:49.851Z,14.9
2022-10-05T10:22:49.599Z,14.9
2022-10-05T10:23:49.587Z,14.9
2022-10-05T10:24:49.554Z,14.9
2022-10-05T10:25:49.609Z,14.9
2022-10-05T10:26:49.595Z,14.9
2022-10-05T10:27:52.313Z,14.9
2022-10-05T10:28:49.573Z,14.9
2022-10-05T10:29:49.556Z,14.9
2022-10-05T10:30:49.683Z,14.9
2022-10-05T10:31:50.097Z,14.9
2022-10-05T10:32:49.611Z,14.9
2022-10-05T10:33:49.552Z,14.9
2022-10-05T10:34:49.574Z,14.9
2022-10-05T10:35:49.573Z,14.9
2022-10-05T10:36:49.992Z,14.9
2022-10-05T10:37:49.585Z,14.9
2022-10-05T10:38:49.587Z,14.9
2022-10-05T10:39:49.577Z,14.9
2022-10-05T10:40:49.586Z,14.9
2022-10-05T10:41:49.575Z,14.9
2022-10-05T10:42:49.568Z,14.9
2022-10-05T10:43:49.560Z,14.9
2022-10-05T10:44:49.576Z,14.9
2022-10-05T10:45:49.592Z,14.9
2022-10-05T10:46:49.833Z,14.9
2022-10-05T10:47:49.579Z,14.9
2022-10-05T10:48:49.606Z,14.9
2022-10-05T10:49:49.576Z,14.9
2022-10-05T10:50:49.564Z,14.9
2022-10-05T10:51:49.559Z,14.9
2022-10-05T10:52:49.570Z,14.9
2022-10-05T10:53:49.594Z,14.9
2022-10-05T10:54:49.583Z,14.9
2022-10-05T10:55:49.572Z,14.9
2022-10-05T10:56:50.042Z,14.9
2022-10-05T10:57:49.567Z,14.9
2022-10-05T10:58:49.580Z,14.9
2022-10-05T10:59:49.556Z,14.9
2022-10-05T11:00:49.587Z,14.9
2022-10-05T11:01:49.806Z,14.9
2022-10-05T11:02:49.604Z,14.9
2022-10-05T11:03:49.565Z,14.9
2022-10-05T11:04:49.563Z,14.9
2022-10-05T11:05:49.576Z,14.9
2022-10-05T11:06:49.590Z,14.9
2022-10-05T11:07:49.553Z,14.9
2022-10-05T11:08:49.549Z,14.9
2022-10-05T11:09:49.598Z,14.9
2022-10-05T11:10:49.564Z,14.9
2022-10-05T11:11:49.800Z,14.9
2022-10-05T11:12:49.564Z,14.9
2022-10-05T11:13:49.575Z,14.9
2022-10-05T11:14:49.554Z,14.9
2022-10-05T11:15:49.726Z,14.9
2022-10-05T11:16:49.871Z,14.9
2022-10-05T11:17:49.572Z,14.9
2022-10-05T11:18:49.566Z,14.9
2022-10-05T11:20:06.312Z,14.9
2022-10-05T11:20:49.553Z,14.9
2022-10-05T11:21:49.557Z,14.9
2022-10-05T11:22:49.557Z,14.9
2022-10-05T11:23:49.559Z,14.9
2022-10-05T11:24:49.554Z,14.9
2022-10-05T11:25:49.576Z,14.9
2022-10-05T11:26:49.743Z,15
2022-10-05T11:27:49.572Z,15
2022-10-05T11:28:49.581Z,14.9
2022-10-05T11:29:49.580Z,15
2022-10-05T11:30:51.215Z,15
2022-10-05T11:31:49.960Z,15
2022-10-05T11:32:49.563Z,15.1
2022-10-05T11:33:49.569Z,15.3
2022-10-05T11:34:49.550Z,15.3
2022-10-05T11:35:49.577Z,15.2
2022-10-05T11:36:49.556Z,15.4
2022-10-05T11:37:49.575Z,15.4
2022-10-05T11:38:49.574Z,15.3
2022-10-05T11:39:49.556Z,15.4
2022-10-05T11:40:49.591Z,15.5
2022-10-05T11:41:50.100Z,15.5
2022-10-05T11:42:49.556Z,15.5
2022-10-05T11:43:49.546Z,15.4
2022-10-05T11:44:49.543Z,15.4
2022-10-05T11:45:49.589Z,15.4
2022-10-05T11:46:49.634Z,15.3
2022-10-05T11:47:49.563Z,15.3
2022-10-05T11:48:49.551Z,15.3
2022-10-05T11:49:49.541Z,15.3
2022-10-05T11:50:49.580Z,15.3
2022-10-05T11:51:49.919Z,15.2
2022-10-05T11:52:49.573Z,15.2
2022-10-05T11:53:49.561Z,15.1
2022-10-05T11:55:09.776Z,15.2
2022-10-05T11:55:49.561Z,15.2
2022-10-05T11:56:52.332Z,15.2
2022-10-05T11:57:49.567Z,15.1
2022-10-05T11:58:49.560Z,15.1
2022-10-05T11:59:49.550Z,15.1
2022-10-05T12:00:49.558Z,15.1
2022-10-05T12:01:49.571Z,15.1
2022-10-05T12:02:49.723Z,15.1
2022-10-05T12:03:49.679Z,15.1
2022-10-05T12:04:49.569Z,15.1
2022-10-05T12:05:49.573Z,15.1
2022-10-05T12:06:49.943Z,15.1
2022-10-05T12:07:49.550Z,15.1
2022-10-05T12:08:49.547Z,15.1
2022-10-05T12:09:49.563Z,15.1
2022-10-05T12:10:49.553Z,15.1
2022-10-05T12:11:50.869Z,15.1
2022-10-05T12:12:49.569Z,15.1
2022-10-05T12:13:49.557Z,15.1
2022-10-05T12:14:49.549Z,15.1
2022-10-05T12:15:49.606Z,15.1
2022-10-05T12:16:49.561Z,15.1
2022-10-05T12:17:49.576Z,15.1
2022-10-05T12:18:49.553Z,15.1
2022-10-05T12:19:49.544Z,15.1
2022-10-05T12:20:49.554Z,15.1
2022-10-05T12:21:49.554Z,15.1
2022-10-05T12:22:49.556Z,15.1
2022-10-05T12:23:49.557Z,15.1
2022-10-05T12:24:49.534Z,15.1
2022-10-05T12:25:49.566Z,15.2
2022-10-05T12:26:49.583Z,15.2
2022-10-05T12:27:49.592Z,15.2
2022-10-05T12:28:49.559Z,15.3
2022-10-05T12:29:49.555Z,15.4
2022-10-05T12:30:49.540Z,15.5
2022-10-05T12:31:49.618Z,15.6
2022-10-05T12:32:49.579Z,15.7
2022-10-05T12:33:49.531Z,15.7
2022-10-05T12:34:49.544Z,15.7
2022-10-05T12:35:49.767Z,15.6
2022-10-05T12:37:49.568Z,15.5
2022-10-05T12:38:49.558Z,15.5
2022-10-05T12:39:49.559Z,15.4
2022-10-05T12:40:49.565Z,15.4
2022-10-05T12:41:49.562Z,15.3
2022-10-05T12:42:49.549Z,15.3
2022-10-05T12:43:49.585Z,15.3
2022-10-05T12:44:49.544Z,15.3
2022-10-05T12:45:49.592Z,15.3
2022-10-05T12:46:49.571Z,15.3
2022-10-05T12:47:53.655Z,15.3
2022-10-05T12:48:49.569Z,15.2
2022-10-05T12:49:49.546Z,15.2
2022-10-05T12:50:49.571Z,15.2
2022-10-05T12:51:49.576Z,15.2
2022-10-05T12:52:49.591Z,15.1
2022-10-05T12:53:49.562Z,15.1
2022-10-05T12:54:49.531Z,15.1
2022-10-05T12:55:49.561Z,15.1
2022-10-05T12:56:49.721Z,15.1
2022-10-05T12:57:49.559Z,15.1
2022-10-05T12:58:49.535Z,15.1
2022-10-05T12:59:49.541Z,15.1
2022-10-05T13:00:49.578Z,15.1
2022-10-05T13:01:49.659Z,15.1
2022-10-05T13:02:49.551Z,15.1
2022-10-05T13:03:49.591Z,15.1
2022-10-05T13:04:49.548Z,15.1
2022-10-05T13:05:49.556Z,15.1
2022-10-05T13:06:49.530Z,15.1
2022-10-05T13:07:49.537Z,15.1
2022-10-05T13:08:49.571Z,15.1
2022-10-05T13:09:49.556Z,15.1
2022-10-05T13:10:49.535Z,15.1
2022-10-05T13:11:49.551Z,15.1
2022-10-05T13:12:49.544Z,15.1
2022-10-05T13:13:49.565Z,15.1
2022-10-05T13:14:49.562Z,15.1
2022-10-05T13:15:49.566Z,15.2
2022-10-05T13:16:54.610Z,15.3
2022-10-05T13:17:49.535Z,15.3
2022-10-05T13:18:49.563Z,15.3
2022-10-05T13:19:49.544Z,15.3